Nearby METAR Reports

 

EGLC - London City Airp, United Kingdom
Distance from station: WNW 7km
Updated: 19/10/2018 19:20
Clear
Clear
 Wind from varies
Wind: varies 1 mph , 2 km/h
Temperature: 12°C
Dew Point: 8°C
Humidity: 77%
Barometer: 1028 hPa
Clouds: Clear
Visibility: 6 miles , 10 km
2018/10/19 19:20 EGLC 191920Z AUTO VRB01KT 9999 NCD 12/08 Q1028
EGKB - Biggin Hill, United Kingdom
Distance from station: SSW 20km
Updated: 19/10/2018 19:20
Clear
Clear
 Wind from S
Wind: S 3 mph , 6 km/h
Temperature: 9°C
Dew Point: 7°C
Humidity: 87%
Barometer: 1028 hPa
Summary: Clear
Visibility: greater than 7 miles , 10 km
2018/10/19 19:20 EGKB 191920Z 18003KT CAVOK 09/07 Q1028
 
EGMC - Southend-On-Sea, United Kingdom
Distance from station: ENE 39km
Updated: 19/10/2018 19:20
Clear
Clear
 Wind from calm
Wind: Calm
Temperature: 6°C
Dew Point: 4°C
Humidity: 87%
Barometer: 1027 hPa
Summary: Clear
Visibility: greater than 7 miles , 10 km
2018/10/19 19:20 EGMC 191920Z 00000KT CAVOK 06/04 Q1027
EGWU - Northolt Raf, United Kingdom
Distance from station: WNW 40km
Updated: 19/10/2018 18:50
Clear
Clear
 Wind from N
Wind: N 1 mph , 2 km/h
Temperature: 9°C
Dew Point: 7°C
Humidity: 87%
Barometer: 1028 hPa
Summary: Clear
Visibility: greater than 7 miles , 10 km
2018/10/19 18:50 EGWU 191850Z 36001KT CAVOK 09/07 Q1028 BLU NOSIG
 
EGLL - London/Heathrow, United Kingdom
Distance from station: W 41km
Updated: 19/10/2018 19:20
Clear
Clear
 Wind from NNW
Wind: NNW 2 mph , 4 km/h
Temperature: 11°C
Dew Point: 8°C
Humidity: 82%
Barometer: 1028 hPa
Clouds: Clear
Visibility: 6 miles , 10 km
2018/10/19 19:20 EGLL 191920Z AUTO 34002KT 9999 NCD 11/08 Q1028
EGKK - London/Gatwick A, United Kingdom
Distance from station: SSW 44km
Updated: 19/10/2018 19:20
Clear
Clear
 Wind from varies
Wind: varies 1 mph , 2 km/h
Temperature: 10°C
Dew Point: 7°C
Humidity: 82%
Barometer: 1028 hPa
Summary: Clear
Visibility: greater than 7 miles , 10 km
2018/10/19 19:20 EGKK 191920Z VRB01KT CAVOK 10/07 Q1028
 
EGSS - Stansted Airport, United Kingdom
Distance from station: N 46km
Updated: 19/10/2018 19:20
Clear
Clear
 Wind from calm
Wind: Calm
Temperature: 6°C
Dew Point: 5°C
Humidity: 93%
Barometer: 1028 hPa
Clouds: Clear
Visibility: 6 miles , 10 km
2018/10/19 19:20 EGSS 191920Z AUTO 00000KT 9999 NCD 06/05 Q1028
KDTW - Detroit/Wayne, Michigan, USA
Distance from station: NW 38km
Updated: 19/10/2018 18:53
Overcast
Overcast
 Wind from SW
Wind: SW 23 mph , 37 km/h, Gust: 28 mph , 44 km/h
Temperature: 15°C
Dew Point: -1°C
Humidity: 34%
Barometer: 1014.6 hPa
Clouds: Overcast
Visibility: 10 miles , 16 km
Cloud details: Few Clouds 2438 m
Overcast 4267 m
2018/10/19 18:53 KDTW 191853Z 23020G24KT 10SM FEW080 OVC140 15/M01 A2996 RMK AO2 PK WND 22028/1817 SLP146 T01501006